Airfield :
LOGIN :

Register | Disclaimer

   EN    FR    IT 

 










Legend :    VFR   Marginal VFR   IFR   Intensive IFR   Very Intensive IFR
Visi :
Ceiling :
>= 8 km
>= 3000ft
5 to 8 km
1000 to 3000 ft
1500m to 5 km
500 to 1000 ft
800 to 1500m
200 to 500 ft
< 800m
< 200 ft
Symbols :   Thunderstorms  Fog  Heavy snow  Heavy precipitations  Wind > 20 kt
SIGMETs :     Misc.  Thunderstorms  Icing  Turbulence  Mountain Waves  Volcanic Ashes







- Airport Elevation : 1966 ft
- IATA code : SGE


EDGS - Siegerland

CURRENT METAR :
  • 210920Z 34003KT 9999 FEW001 BKN078 19/13 Q1013

EXPIRED METARs :
  • 210850Z 29004KT 9999 VCFG FEW001 BKN083 18/13 Q1013
  • 210820Z 00000KT 9999 VCSH FEW002 BKN086 18/14 Q1013 RERA
  • 210750Z 25005KT 9999 -RA FEW011 BKN084 17/14 Q1013
  • 210720Z 27007KT 9999 -RA FEW017 BKN086 16/14 Q1013
  • 210650Z 22005KT 180V270 9999 -RA NSC 16/14 Q1013
  • 210620Z 24010KT 8000 -RA FEW012 BKN083 16/15 Q1013

TAF TAF EDGS
Valid from the 21 at 09:00 until the 21 at 18:00 UTC


210800Z 2109/2118 30005KT 9999 FEW015 SCT040
PROB40
TEMPO 2109/2110 24010KT SHRA BKN040CB
PROB30
TEMPO 2112/2115 22015G25KT 4000 TSRA BKN040CB
No reported NOTAMs for that airfield.



MET'MAP, your aeronautical weather chart ! - Copyright ORBIFLY December 2007 - Disclaimer

ORBIFLY MET'MAP TEAM :

Programming & Development : Alexandra Zaïnal
Concept & Development : Baudouin d'Aumeries
Co-Development & Prog : Marc-Olivier Méhu
Technical & hardware support : Manuel Goepfert

Contact : metmap@orbifly.com




SOURCES & CREDITS :

   NOAA